Time;durP1;ratioP1;P1;durP2;ratioP2;P2;SDS_P1;SDS_P2;PMS_P1;PMS_P2;Temp;Humidity;BMP_temperature;BMP_pressure;BME280_temperature;BME280_humidity;BME280_pressure;Samples;Min_cycle;Max_cycle;Signal;HPM_P1;HPM_P2
2021/05/12 00:47:04;;;;;;;9.15;6.30;;;13.80;91.50;;;;;;5032450;28;20056;-86
2021/05/12 00:49:33;;;;;;;9.38;6.45;;;13.80;91.70;;;;;;5034930;28;20080;-85
2021/05/12 00:51:58;;;;;;;8.60;6.68;;;13.80;91.60;;;;;;5034047;28;20048;-86
2021/05/12 00:54:24;;;;;;;9.20;6.70;;;13.80;91.70;;;;;;5034091;28;20049;-86
2021/05/12 00:56:51;;;;;;;9.55;6.13;;;13.80;91.70;;;;;;5034403;28;20404;-86
2021/05/12 00:59:17;;;;;;;8.38;6.88;;;13.80;91.60;;;;;;5033758;28;20417;-86
2021/05/12 01:01:42;;;;;;;8.13;7.00;;;13.80;92.00;;;;;;5034080;28;20050;-86
2021/05/12 01:04:08;;;;;;;8.90;6.78;;;13.80;91.70;;;;;;5034014;28;20045;-86
2021/05/12 01:06:39;;;;;;;8.85;7.03;;;13.80;91.60;;;;;;5034205;28;20065;-86
2021/05/12 01:09:07;;;;;;;8.73;6.95;;;13.80;91.70;;;;;;5034231;28;20061;-87
2021/05/12 01:11:33;;;;;;;8.73;7.05;;;13.70;91.70;;;;;;5033609;28;20053;-86
2021/05/12 01:13:59;;;;;;;10.70;6.70;;;13.70;91.70;;;;;;5033819;28;20049;-86
2021/05/12 01:16:25;;;;;;;8.85;7.00;;;13.70;91.50;;;;;;5033316;28;20132;-86
2021/05/12 01:18:51;;;;;;;8.25;6.85;;;13.70;91.60;;;;;;5033191;28;20136;-86
2021/05/12 01:21:17;;;;;;;9.93;6.95;;;13.70;91.60;;;;;;5034049;28;20502;-86
2021/05/12 01:23:45;;;;;;;9.63;7.47;;;13.70;91.50;;;;;;5033630;28;20050;-87
2021/05/12 01:26:14;;;;;;;9.32;7.47;;;13.70;91.40;;;;;;5033163;28;20056;-86
2021/05/12 01:28:46;;;;;;;9.98;8.13;;;13.60;91.50;;;;;;5033130;28;20488;-86
2021/05/12 01:31:16;;;;;;;8.60;6.85;;;13.60;91.50;;;;;;5033448;28;20045;-86
2021/05/12 01:33:42;;;;;;;8.65;6.88;;;13.60;91.40;;;;;;5032988;28;20045;-86
2021/05/12 01:36:10;;;;;;;8.00;6.82;;;13.60;91.50;;;;;;5033498;28;20045;-86
2021/05/12 01:38:38;;;;;;;9.15;6.70;;;13.60;91.20;;;;;;5033758;28;20401;-86
2021/05/12 01:41:05;;;;;;;8.25;6.45;;;13.60;91.10;;;;;;5032623;28;20397;-85
2021/05/12 01:43:33;;;;;;;12.68;8.40;;;13.60;91.20;;;;;;5033589;28;20057;-87
2021/05/12 01:45:59;;;;;;;10.23;7.97;;;13.50;91.10;;;;;;5033285;28;20409;-86
2021/05/12 01:48:28;;;;;;;8.93;7.70;;;13.60;91.40;;;;;;5032671;28;20057;-86
2021/05/12 01:50:55;;;;;;;9.93;8.00;;;13.60;91.40;;;;;;5032709;28;20050;-87
2021/05/12 01:53:21;;;;;;;11.40;8.48;;;13.50;91.50;;;;;;5032713;28;20049;-86
2021/05/12 01:55:51;;;;;;;9.52;8.52;;;13.50;91.70;;;;;;5032653;28;20048;-86
2021/05/12 01:58:18;;;;;;;10.65;8.23;;;13.50;91.60;;;;;;5033200;28;20115;-86
2021/05/12 02:00:46;;;;;;;13.10;9.68;;;13.50;91.40;;;;;;5032495;28;20107;-86
2021/05/12 02:03:12;;;;;;;10.20;7.85;;;13.50;91.40;;;;;;5033561;28;20072;-86
2021/05/12 02:08:42;;;;;;;11.10;8.60;;;13.50;91.10;;;;;;5031900;28;20133;-86
2021/05/12 02:11:08;;;;;;;10.70;8.82;;;13.50;91.40;;;;;;5032761;28;20530;-86
2021/05/12 02:13:35;;;;;;;11.93;9.25;;;13.50;91.20;;;;;;5032995;28;20045;-87
2021/05/12 02:16:06;;;;;;;11.20;8.27;;;13.40;91.20;;;;;;5032223;28;20045;-86
2021/05/12 02:18:32;;;;;;;13.02;8.32;;;13.40;91.20;;;;;;5032767;28;20046;-86
2021/05/12 02:20:58;;;;;;;9.82;8.13;;;13.40;91.10;;;;;;5032543;28;20049;-87
2021/05/12 02:23:25;;;;;;;15.30;10.77;;;13.40;91.10;;;;;;5032620;28;20382;-86
2021/05/12 02:25:50;;;;;;;10.82;9.15;;;13.40;91.00;;;;;;5032167;28;20045;-86
2021/05/12 02:28:16;;;;;;;21.55;12.77;;;13.40;91.20;;;;;;5032637;28;20060;-86
2021/05/12 02:30:43;;;;;;;18.52;13.32;;;13.40;91.20;;;;;;5031982;28;20056;-86
2021/05/12 02:33:09;;;;;;;11.57;9.20;;;13.40;91.30;;;;;;5032297;28;20128;-85
2021/05/12 02:35:36;;;;;;;12.68;9.90;;;13.30;91.40;;;;;;5032524;28;20041;-85
2021/05/12 02:38:02;;;;;;;15.95;12.48;;;13.30;91.40;;;;;;5032832;28;20060;-86
2021/05/12 02:40:28;;;;;;;13.00;10.02;;;13.30;91.30;;;;;;5032691;28;20493;-85
2021/05/12 02:42:56;;;;;;;13.63;10.15;;;13.30;91.40;;;;;;5032045;28;20103;-86
2021/05/12 02:45:22;;;;;;;12.20;9.50;;;13.30;91.40;;;;;;5032918;28;20464;-85
2021/05/12 02:47:58;;;;;;;12.38;9.38;;;13.30;91.20;;;;;;5031797;28;20069;-86
2021/05/12 02:50:50;;;;;;;12.93;9.43;;;13.30;91.30;;;;;;5032247;28;20133;-86
2021/05/12 02:53:16;;;;;;;13.60;10.27;;;13.20;91.20;;;;;;5030228;28;20057;-86
2021/05/12 02:55:42;;;;;;;13.88;10.70;;;13.20;91.60;;;;;;5032445;28;20115;-85
2021/05/12 02:58:08;;;;;;;16.35;11.07;;;13.20;91.40;;;;;;5032056;28;20084;-85
2021/05/12 03:00:37;;;;;;;13.27;10.18;;;13.20;91.50;;;;;;5032622;28;20137;-86
2021/05/12 03:03:02;;;;;;;14.07;10.73;;;13.20;91.30;;;;;;5032363;28;20488;-86
2021/05/12 03:05:34;;;;;;;12.65;10.75;;;13.10;91.60;;;;;;5032155;28;20460;-85
2021/05/12 03:08:01;;;;;;;12.52;9.85;;;13.10;91.80;;;;;;5031900;28;20497;-85
2021/05/12 03:10:27;;;;;;;13.35;10.95;;;13.20;91.60;;;;;;5032509;28;20103;-84
2021/05/12 03:12:53;;;;;;;16.13;11.73;;;13.20;91.60;;;;;;5031587;28;20319;-85
2021/05/12 03:15:21;;;;;;;15.52;11.20;;;13.10;91.50;;;;;;5032431;28;20528;-85
2021/05/12 03:17:47;;;;;;;18.75;12.25;;;13.10;91.30;;;;;;5031740;28;20077;-85
2021/05/12 03:20:13;;;;;;;15.68;10.73;;;13.10;91.30;;;;;;5032463;28;20472;-85
2021/05/12 03:22:39;;;;;;;13.23;10.27;;;13.10;91.20;;;;;;5031840;28;20512;-85
2021/05/12 03:25:05;;;;;;;14.15;11.02;;;13.10;91.00;;;;;;5031542;28;20049;-85
2021/05/12 03:27:31;;;;;;;13.52;10.07;;;13.00;90.90;;;;;;5032591;28;20394;-85
2021/05/12 03:29:57;;;;;;;17.25;13.35;;;13.10;90.80;;;;;;5031905;28;20068;-85
2021/05/12 03:32:22;;;;;;;18.65;13.57;;;13.10;90.90;;;;;;5031617;28;20132;-85
2021/05/12 03:34:48;;;;;;;13.60;10.45;;;13.00;91.00;;;;;;5032140;28;20141;-85
2021/05/12 03:37:14;;;;;;;15.73;11.32;;;13.00;91.30;;;;;;5031614;28;20444;-86
2021/05/12 03:39:40;;;;;;;15.30;11.52;;;13.00;91.20;;;;;;5034834;28;20080;-85
2021/05/12 03:42:06;;;;;;;16.27;11.80;;;13.00;91.00;;;;;;5035842;28;20514;-85
2021/05/12 03:44:31;;;;;;;13.65;10.68;;;13.00;91.30;;;;;;5035757;28;20049;-85
2021/05/12 03:46:57;;;;;;;13.75;10.15;;;12.90;91.20;;;;;;5035047;28;20124;-85
2021/05/12 03:49:23;;;;;;;16.90;12.15;;;13.00;91.10;;;;;;5035239;28;20061;-85
2021/05/12 03:51:48;;;;;;;14.85;11.98;;;12.90;91.20;;;;;;5035126;28;20045;-84
2021/05/12 03:54:15;;;;;;;15.23;11.43;;;12.90;91.20;;;;;;5034925;28;20516;-85
2021/05/12 03:56:40;;;;;;;14.02;10.82;;;12.90;91.20;;;;;;5035331;28;20053;-85
2021/05/12 03:59:06;;;;;;;14.23;11.07;;;12.90;91.30;;;;;;5035391;28;20401;-85
2021/05/12 04:01:31;;;;;;;15.55;10.80;;;12.90;91.10;;;;;;5035078;28;20041;-85
2021/05/12 04:03:58;;;;;;;13.45;11.70;;;12.90;91.30;;;;;;5035113;28;20088;-85
2021/05/12 04:06:24;;;;;;;13.60;10.77;;;12.90;91.30;;;;;;5035438;28;20046;-85
2021/05/12 04:08:50;;;;;;;15.48;12.13;;;12.90;91.50;;;;;;5034313;28;20092;-85
2021/05/12 04:11:16;;;;;;;14.45;12.00;;;12.80;91.70;;;;;;5034837;28;20386;-85
2021/05/12 04:13:41;;;;;;;16.30;12.15;;;12.90;91.60;;;;;;5035311;28;20128;-85
2021/05/12 04:16:07;;;;;;;15.65;11.88;;;12.80;91.70;;;;;;5034947;28;20073;-85
2021/05/12 04:18:32;;;;;;;15.55;11.90;;;12.80;91.50;;;;;;5034409;28;20516;-87
2021/05/12 04:20:58;;;;;;;16.55;13.35;;;12.80;91.30;;;;;;5034505;28;20045;-85
2021/05/12 04:23:24;;;;;;;16.23;12.38;;;12.80;91.50;;;;;;5035038;28;20052;-85
2021/05/12 04:25:49;;;;;;;14.88;11.80;;;12.80;91.30;;;;;;5034534;28;20052;-85
2021/05/12 04:28:15;;;;;;;16.90;12.70;;;12.70;91.30;;;;;;5034667;28;20060;-85
2021/05/12 04:30:41;;;;;;;14.65;11.70;;;12.70;91.60;;;;;;5034994;28;20446;-85
2021/05/12 04:33:06;;;;;;;14.80;12.05;;;12.70;91.50;;;;;;5034759;28;20045;-85
2021/05/12 04:35:32;;;;;;;14.73;11.32;;;12.70;91.50;;;;;;5034458;28;20079;-85
2021/05/12 04:37:58;;;;;;;19.63;13.20;;;12.70;91.50;;;;;;5034024;28;20492;-85
2021/05/12 04:40:25;;;;;;;18.70;14.02;;;12.70;91.60;;;;;;5034159;28;20505;-85
2021/05/12 04:42:51;;;;;;;16.30;11.60;;;12.70;91.40;;;;;;5025179;28;20095;-85
2021/05/12 04:45:17;;;;;;;17.45;12.98;;;12.70;91.30;;;;;;5034612;28;20123;-85
2021/05/12 04:47:54;;;;;;;18.10;14.15;;;12.70;91.20;;;;;;5033995;28;20087;-84
2021/05/12 04:50:22;;;;;;;16.08;12.35;;;12.70;91.20;;;;;;5033206;28;20128;-85
2021/05/12 04:52:47;;;;;;;17.98;13.82;;;12.70;91.50;;;;;;5033977;28;20516;-85
2021/05/12 04:55:14;;;;;;;17.85;13.73;;;12.70;91.60;;;;;;5034766;28;20060;-85
2021/05/12 04:57:39;;;;;;;18.35;13.57;;;12.70;91.80;;;;;;5033650;28;20053;-85
2021/05/12 05:00:06;;;;;;;17.45;14.70;;;12.70;91.80;;;;;;5034011;28;20128;-85
2021/05/12 05:02:32;;;;;;;17.30;13.80;;;12.70;91.70;;;;;;5034007;28;20541;-85
2021/05/12 05:04:57;;;;;;;16.73;12.63;;;12.70;91.60;;;;;;5033444;28;20132;-85
2021/05/12 05:07:23;;;;;;;16.83;12.70;;;12.70;91.40;;;;;;5031572;28;20046;-84
2021/05/12 05:09:54;;;;;;;16.67;13.57;;;12.70;91.60;;;;;;5024502;28;20073;-85
2021/05/12 05:12:19;;;;;;;17.48;13.80;;;12.70;91.60;;;;;;5032216;28;20111;-85
2021/05/12 05:14:45;;;;;;;14.15;12.07;;;12.70;91.50;;;;;;5033478;28;20046;-85
2021/05/12 05:17:11;;;;;;;15.60;12.57;;;12.70;91.50;;;;;;5033974;28;20088;-85
2021/05/12 05:19:36;;;;;;;15.23;13.07;;;12.70;91.60;;;;;;5032776;28;20056;-85
2021/05/12 05:22:03;;;;;;;20.58;16.25;;;12.70;91.60;;;;;;5033789;28;20132;-85
2021/05/12 05:24:29;;;;;;;18.15;15.52;;;12.70;91.70;;;;;;5019866;28;20054;-85
2021/05/12 05:26:55;;;;;;;17.63;15.35;;;12.70;91.70;;;;;;5023914;28;20050;-90
2021/05/12 05:29:21;;;;;;;19.90;16.27;;;12.70;91.70;;;;;;5034084;28;20140;-92
2021/05/12 05:31:47;;;;;;;18.08;16.08;;;12.70;91.80;;;;;;5029587;28;20056;-85
2021/05/12 05:34:16;;;;;;;18.23;14.32;;;12.70;91.90;;;;;;5029647;28;20044;-87
2021/05/12 05:36:42;;;;;;;18.52;14.10;;;12.80;92.10;;;;;;5032538;28;20103;-85
2021/05/12 05:39:08;;;;;;;16.85;14.15;;;12.80;91.90;;;;;;5032576;28;20053;-83
2021/05/12 05:41:33;;;;;;;18.05;14.35;;;12.80;91.90;;;;;;5025247;28;20144;-84
2021/05/12 05:43:59;;;;;;;16.60;13.80;;;12.80;91.90;;;;;;5033297;28;20042;-83
2021/05/12 05:46:24;;;;;;;16.52;12.93;;;12.70;91.90;;;;;;5032830;28;20486;-83
2021/05/12 05:48:50;;;;;;;18.42;12.55;;;12.70;91.90;;;;;;5029602;28;20058;-84
2021/05/12 05:51:16;;;;;;;14.18;10.68;;;12.80;91.80;;;;;;5023292;28;20375;-86
2021/05/12 05:53:41;;;;;;;16.02;11.95;;;12.70;91.70;;;;;;5029073;28;20052;-85
2021/05/12 05:56:07;;;;;;;15.25;11.25;;;12.70;91.60;;;;;;5031477;28;20053;-87
2021/05/12 05:58:33;;;;;;;14.68;12.10;;;12.70;91.50;;;;;;5028269;28;20075;-85
2021/05/12 06:00:59;;;;;;;15.15;11.07;;;12.70;91.50;;;;;;5024646;28;20046;-85
2021/05/12 06:03:24;;;;;;;15.57;11.75;;;12.70;91.40;;;;;;5015531;28;20053;-87
2021/05/12 06:05:50;;;;;;;14.07;9.27;;;12.70;91.50;;;;;;5030752;28;20045;-84
2021/05/12 06:08:16;;;;;;;12.77;8.93;;;12.70;91.20;;;;;;5014284;28;20390;-89
2021/05/12 06:10:44;;;;;;;13.43;9.98;;;12.70;91.20;;;;;;5018401;28;20615;-89
2021/05/12 06:13:11;;;;;;;16.33;9.98;;;12.70;91.50;;;;;;5033205;28;20072;-89
2021/05/12 06:15:39;;;;;;;12.70;9.90;;;12.70;91.20;;;;;;5032646;28;20049;-89
2021/05/12 06:18:08;;;;;;;13.15;8.93;;;12.70;91.20;;;;;;5033164;28;20056;-89
2021/05/12 06:20:38;;;;;;;13.77;8.20;;;12.80;91.00;;;;;;5032618;28;20481;-90
2021/05/12 06:23:04;;;;;;;13.43;8.23;;;12.80;90.90;;;;;;5032405;28;20081;-90
2021/05/12 06:25:31;;;;;;;11.88;8.40;;;12.80;90.90;;;;;;5033279;28;20077;-90
2021/05/12 06:27:56;;;;;;;14.75;7.60;;;12.90;90.90;;;;;;5032846;28;20080;-90
2021/05/12 06:30:25;;;;;;;13.02;8.13;;;12.90;90.70;;;;;;5033524;28;20077;-90
2021/05/12 06:33:07;;;;;;;12.23;6.88;;;13.00;90.70;;;;;;5035684;28;20483;-90
2021/05/12 06:35:33;;;;;;;13.73;6.78;;;13.00;90.30;;;;;;5032642;28;20102;-89
2021/05/12 06:38:08;;;;;;;13.60;6.65;;;13.10;90.20;;;;;;5032557;28;20049;-90
2021/05/12 06:40:39;;;;;;;14.50;7.00;;;13.10;90.00;;;;;;5033084;28;20057;-89
2021/05/12 06:43:06;;;;;;;13.27;6.32;;;13.20;90.10;;;;;;5032670;28;20112;-90
2021/05/12 06:45:31;;;;;;;12.93;5.78;;;13.30;90.00;;;;;;5033009;28;20045;-91
2021/05/12 06:48:06;;;;;;;12.88;5.80;;;13.40;89.30;;;;;;5028113;28;20058;-91
2021/05/12 06:50:35;;;;;;;13.27;6.97;;;13.40;88.40;;;;;;5031565;28;20409;-91
2021/05/12 06:53:01;;;;;;;12.80;5.93;;;13.40;89.40;;;;;;5027313;28;20042;-86
2021/05/12 06:55:27;;;;;;;10.07;5.28;;;13.50;89.00;;;;;;5028572;28;20327;-86
2021/05/12 06:57:53;;;;;;;13.00;5.15;;;13.50;88.60;;;;;;5028734;28;20054;-87
2021/05/12 07:00:20;;;;;;;12.63;4.63;;;13.60;88.20;;;;;;5029801;28;20405;-88
2021/05/12 07:02:45;;;;;;;12.32;4.88;;;13.70;88.30;;;;;;5031472;28;20104;-88
2021/05/12 07:05:15;;;;;;;15.70;4.50;;;13.70;88.00;;;;;;5032334;28;20049;-88
2021/05/12 07:07:42;;;;;;;12.27;5.75;;;13.80;86.80;;;;;;5031302;28;20041;-88
2021/05/12 07:10:09;;;;;;;10.90;4.50;;;13.80;87.70;;;;;;5031252;28;20058;-89
2021/05/12 07:12:36;;;;;;;8.88;4.57;;;13.90;87.70;;;;;;5032990;28;20080;-89
2021/05/12 07:15:03;;;;;;;8.80;3.92;;;14.00;88.00;;;;;;5036157;28;20077;-90
2021/05/12 07:17:29;;;;;;;8.93;4.20;;;14.00;87.30;;;;;;5035836;28;20046;-88
2021/05/12 07:19:55;;;;;;;11.07;4.00;;;14.10;87.00;;;;;;5036038;28;20486;-91
2021/05/12 07:22:22;;;;;;;10.70;4.63;;;14.20;86.40;;;;;;5036575;28;20045;-89
2021/05/12 07:24:49;;;;;;;11.82;3.28;;;14.20;87.80;;;;;;5035753;28;20092;-88
2021/05/12 07:27:17;;;;;;;10.45;3.35;;;14.30;86.70;;;;;;5036014;28;20041;-90
2021/05/12 07:29:47;;;;;;;10.30;3.05;;;14.40;86.00;;;;;;5036101;28;20058;-87
2021/05/12 07:32:14;;;;;;;8.80;3.17;;;14.50;85.40;;;;;;5034672;28;20076;-89
2021/05/12 07:34:40;;;;;;;8.38;2.70;;;14.50;85.60;;;;;;5025071;28;20131;-88
2021/05/12 07:37:06;;;;;;;9.13;3.22;;;14.60;84.60;;;;;;5028009;28;20185;-89
2021/05/12 07:39:40;;;;;;;11.35;2.90;;;14.70;84.60;;;;;;5020294;28;20145;-88
2021/05/12 07:42:08;;;;;;;8.43;3.08;;;14.70;83.50;;;;;;5028652;28;20072;-88
2021/05/12 07:44:33;;;;;;;10.52;3.05;;;14.80;84.60;;;;;;5021228;28;20057;-88
2021/05/12 07:46:59;;;;;;;10.18;2.90;;;14.90;83.70;;;;;;5033307;28;20480;-86
2021/05/12 07:49:25;;;;;;;7.70;2.90;;;14.90;84.30;;;;;;5035093;28;20208;-87
2021/05/12 07:51:51;;;;;;;7.32;3.15;;;15.00;84.10;;;;;;5035091;28;20049;-89
2021/05/12 07:54:17;;;;;;;9.45;3.17;;;15.10;84.20;;;;;;5033785;28;20052;-90
2021/05/12 07:56:43;;;;;;;11.18;3.08;;;15.10;84.40;;;;;;5018657;28;20050;-91
2021/05/12 07:59:17;;;;;;;8.50;2.95;;;15.20;84.30;;;;;;5034345;28;20068;-90
2021/05/12 08:01:47;;;;;;;8.73;2.70;;;15.30;84.70;;;;;;5035161;28;20049;-94
2021/05/12 08:04:12;;;;;;;10.18;3.00;;;15.40;83.90;;;;;;5035773;28;20404;-88
2021/05/12 08:06:38;;;;;;;8.23;2.67;;;15.40;82.70;;;;;;5034931;28;20053;-88
2021/05/12 08:09:06;;;;;;;9.40;2.50;;;15.50;83.50;;;;;;5035421;28;20094;-90
2021/05/12 08:11:44;;;;;;;9.25;2.42;;;15.50;82.20;;;;;;5034227;28;20045;-89
2021/05/12 08:14:10;;;;;;;8.05;2.50;;;15.60;81.60;;;;;;5040263;28;20122;-86
2021/05/12 08:16:37;;;;;;;8.93;2.30;;;15.70;82.20;;;;;;5033594;28;20129;-86
2021/05/12 08:19:07;;;;;;;7.30;2.25;;;15.70;81.00;;;;;;5035304;28;20053;-90
2021/05/12 08:21:35;;;;;;;8.45;2.17;;;15.80;80.10;;;;;;5038959;28;20409;-88
2021/05/12 08:24:01;;;;;;;7.72;2.22;;;15.80;80.00;;;;;;5053922;28;20049;-91
2021/05/12 08:26:28;;;;;;;7.43;2.00;;;15.90;80.10;;;;;;5054732;28;20063;-90
2021/05/12 08:28:55;;;;;;;6.70;2.20;;;15.90;80.80;;;;;;5037342;28;20080;-88
2021/05/12 08:31:22;;;;;;;7.90;2.10;;;16.00;80.10;;;;;;5034665;28;20132;-89
2021/05/12 08:33:48;;;;;;;7.20;2.60;;;16.10;79.60;;;;;;5035031;28;20076;-89
2021/05/12 08:36:34;;;;;;;5.45;1.92;;;16.20;81.10;;;;;;5033329;28;20517;-86
2021/05/12 08:39:00;;;;;;;7.45;1.63;;;16.20;82.30;;;;;;5033912;28;20067;-90
2021/05/12 08:41:27;;;;;;;6.32;1.80;;;16.30;81.50;;;;;;5042555;28;20041;-92
2021/05/12 08:43:53;;;;;;;9.45;2.40;;;16.40;80.00;;;;;;5047513;28;20095;-90
2021/05/12 08:46:22;;;;;;;5.82;1.90;;;16.50;79.40;;;;;;5035082;28;20095;-91
2021/05/12 08:48:49;;;;;;;6.32;1.75;;;16.60;78.70;;;;;;5034455;28;20148;-91
2021/05/12 08:51:15;;;;;;;7.63;1.67;;;16.60;78.50;;;;;;5034707;28;20042;-91
2021/05/12 08:53:41;;;;;;;7.75;1.90;;;16.70;78.00;;;;;;5035237;28;20049;-94
2021/05/12 08:56:06;;;;;;;6.10;1.60;;;16.80;78.80;;;;;;5035431;28;20204;-91
2021/05/12 08:58:32;;;;;;;10.02;1.75;;;16.90;79.90;;;;;;5033736;28;20405;-94
2021/05/12 09:00:59;;;;;;;7.18;1.52;;;16.90;79.50;;;;;;5034232;28;20072;-94
2021/05/12 09:03:28;;;;;;;8.48;1.83;;;17.00;78.70;;;;;;5033882;28;20529;-93
2021/05/12 09:05:57;;;;;;;7.00;2.03;;;17.10;78.20;;;;;;5034329;28;20045;-93
2021/05/12 09:08:25;;;;;;;6.82;1.75;;;17.10;77.60;;;;;;5048169;28;20049;-92
2021/05/12 09:10:52;;;;;;;7.68;1.80;;;17.20;77.80;;;;;;5054000;28;20492;-91
2021/05/12 09:13:36;;;;;;;7.82;1.70;;;17.30;77.10;;;;;;5052365;28;20072;-91
2021/05/12 09:16:21;;;;;;;9.23;1.60;;;17.30;74.90;;;;;;5034685;28;20049;-90
2021/05/12 09:18:49;;;;;;;7.28;1.60;;;17.40;75.00;;;;;;5034093;28;20053;-88
2021/05/12 09:21:15;;;;;;;8.88;1.90;;;17.40;77.00;;;;;;5034315;28;20103;-89
2021/05/12 09:23:43;;;;;;;8.95;1.70;;;17.50;77.60;;;;;;5032587;28;20099;-86
2021/05/12 09:26:14;;;;;;;8.77;1.60;;;17.50;76.00;;;;;;5025345;28;20080;-87
2021/05/12 09:28:41;;;;;;;8.60;1.90;;;17.60;74.80;;;;;;5033665;28;20050;-90
2021/05/12 09:31:11;;;;;;;8.45;1.67;;;17.60;75.40;;;;;;5033425;28;20045;-91
2021/05/12 09:33:40;;;;;;;6.32;1.60;;;17.70;74.50;;;;;;5033222;28;20559;-91
2021/05/12 09:36:07;;;;;;;7.80;1.55;;;17.70;76.00;;;;;;5033626;28;20037;-92
2021/05/12 09:38:34;;;;;;;8.27;1.75;;;17.80;78.20;;;;;;5033707;28;20052;-91
2021/05/12 09:41:12;;;;;;;9.10;1.73;;;17.90;76.80;;;;;;5043102;28;20095;-90
2021/05/12 09:43:48;;;;;;;9.13;1.75;;;17.90;76.10;;;;;;5034843;28;20054;-91
2021/05/12 09:46:15;;;;;;;8.40;1.75;;;18.00;74.60;;;;;;5016358;28;20556;-94
2021/05/12 09:49:08;;;;;;;11.43;2.00;;;18.10;75.50;;;;;;5021208;28;20089;-89
2021/05/12 09:51:39;;;;;;;9.75;1.95;;;18.10;74.20;;;;;;5013203;28;20141;-93
2021/05/12 09:54:20;;;;;;;8.60;1.60;;;18.20;76.30;;;;;;5022996;28;20095;-91
2021/05/12 09:57:00;;;;;;;7.30;1.63;;;18.20;76.30;;;;;;5026763;28;20473;-88
2021/05/12 09:59:32;;;;;;;7.68;1.90;;;18.30;74.30;;;;;;5031752;28;20059;-91
2021/05/12 10:02:03;;;;;;;8.80;1.65;;;18.30;76.50;;;;;;5016884;28;20049;-90
2021/05/12 10:04:35;;;;;;;7.88;1.73;;;18.40;75.40;;;;;;5026629;28;20057;-89
2021/05/12 10:07:11;;;;;;;6.65;1.60;;;18.40;73.90;;;;;;5030960;28;20471;-91
2021/05/12 10:09:37;;;;;;;9.60;1.83;;;18.50;74.60;;;;;;5026263;28;20045;-89
2021/05/12 10:12:05;;;;;;;9.27;1.50;;;18.60;74.20;;;;;;5022490;28;20057;-91
2021/05/12 10:14:34;;;;;;;12.07;1.90;;;18.60;74.40;;;;;;5032089;28;20415;-90
2021/05/12 10:17:00;;;;;;;8.45;1.73;;;18.70;73.60;;;;;;5029915;28;20543;-90
2021/05/12 10:19:26;;;;;;;9.13;1.90;;;18.70;73.10;;;;;;5031418;28;20045;-89
2021/05/12 10:21:53;;;;;;;8.40;1.77;;;18.80;71.90;;;;;;5027987;28;20045;-89
2021/05/12 10:24:18;;;;;;;9.68;1.75;;;18.80;73.30;;;;;;5028902;28;20107;-93
2021/05/12 10:26:45;;;;;;;10.75;1.92;;;18.80;73.40;;;;;;5029152;28;20468;-92
2021/05/12 10:29:17;;;;;;;10.20;1.88;;;18.90;73.80;;;;;;5031307;28;20588;-94
2021/05/12 10:31:43;;;;;;;10.00;1.92;;;19.00;72.90;;;;;;5032612;28;20049;-92
2021/05/12 10:34:43;;;;;;;7.13;1.42;;;19.00;72.10;;;;;;5030475;28;20106;-92
2021/05/12 10:37:25;;;;;;;7.80;1.67;;;19.00;74.00;;;;;;5026146;28;20042;-92
2021/05/12 10:40:21;;;;;;;10.35;2.22;;;19.00;73.50;;;;;;5032907;28;20069;-90
2021/05/12 10:42:54;;;;;;;10.40;1.80;;;19.10;73.80;;;;;;5027406;28;20099;-89
2021/05/12 10:45:32;;;;;;;;;;;19.20;74.50;;;;;;5021400;28;20397;-92
2021/05/12 10:47:58;;;;;;;6.57;1.50;;;19.20;74.40;;;;;;5027933;28;20377;-90
2021/05/12 10:50:54;;;;;;;10.13;1.58;;;19.30;75.60;;;;;;5036473;28;20049;-92
2021/05/12 10:53:21;;;;;;;6.82;1.40;;;19.40;74.80;;;;;;5023181;28;20084;-92
2021/05/12 10:55:56;;;;;;;7.25;1.60;;;19.50;74.70;;;;;;5030760;28;20100;-93
2021/05/12 10:58:37;;;;;;;9.98;1.98;;;19.50;73.10;;;;;;5035844;28;20051;-92
2021/05/12 11:01:05;;;;;;;10.88;2.00;;;19.60;72.30;;;;;;5036439;28;20108;-93
2021/05/12 11:03:52;;;;;;;9.68;1.90;;;19.60;71.80;;;;;;5020112;28;20095;-92
2021/05/12 11:06:20;;;;;;;9.18;1.90;;;19.70;71.80;;;;;;5036103;28;20112;-91
2021/05/12 11:09:17;;;;;;;11.35;2.13;;;19.70;72.20;;;;;;5035305;28;20073;-93
2021/05/12 11:11:48;;;;;;;8.57;1.92;;;19.70;71.10;;;;;;5019945;28;20083;-90
2021/05/12 11:14:31;;;;;;;11.35;2.33;;;19.80;71.90;;;;;;5035760;28;20052;-89
2021/05/12 11:17:17;;;;;;;11.05;2.05;;;19.80;70.50;;;;;;5035687;28;20100;-92
2021/05/12 11:19:56;;;;;;;9.75;1.77;;;19.80;70.70;;;;;;5028792;28;20551;-88
2021/05/12 11:22:32;;;;;;;11.68;2.00;;;19.90;71.10;;;;;;5025392;28;20052;-90
2021/05/12 11:25:05;;;;;;;10.88;2.00;;;19.90;71.40;;;;;;5032589;28;20049;-90
2021/05/12 11:32:38;;;;;;;11.70;2.10;;;20.00;72.40;;;;;;5036282;28;20091;-91
2021/05/12 11:35:07;;;;;;;9.27;2.05;;;20.10;74.40;;;;;;5035362;28;20108;-91
2021/05/12 11:37:36;;;;;;;9.02;1.85;;;20.10;74.00;;;;;;5018311;28;20451;-90
2021/05/12 11:40:03;;;;;;;10.00;1.98;;;20.10;72.10;;;;;;5027467;28;20084;-90
2021/05/12 11:42:31;;;;;;;11.93;2.10;;;20.10;70.60;;;;;;5026434;28;20049;-91
2021/05/12 11:45:19;;;;;;;9.98;1.90;;;20.10;71.60;;;;;;5020030;28;20084;-90
2021/05/12 11:47:57;;;;;;;9.32;1.80;;;20.10;70.60;;;;;;5026891;28;20061;-89
2021/05/12 11:50:25;;;;;;;9.52;1.70;;;20.10;72.10;;;;;;5008749;28;20049;-93
2021/05/12 11:52:51;;;;;;;9.20;1.58;;;20.20;72.00;;;;;;5015420;28;20064;-87
2021/05/12 11:55:20;;;;;;;8.38;1.80;;;20.20;73.60;;;;;;5015173;28;20049;-87
2021/05/12 11:57:46;;;;;;;10.50;1.88;;;20.20;70.40;;;;;;5014795;28;20081;-85
2021/05/12 12:00:18;;;;;;;9.73;1.80;;;20.20;69.40;;;;;;5006331;28;20078;-94
2021/05/12 12:03:03;;;;;;;8.88;2.05;;;20.20;69.30;;;;;;5012307;28;20046;-93
2021/05/12 12:08:28;;;;;;;6.30;1.35;;;20.30;69.50;;;;;;4985605;28;20482;-92
2021/05/12 12:11:09;;;;;;;10.80;1.88;;;20.30;71.10;;;;;;5020203;28;20046;-95
2021/05/12 12:13:35;;;;;;;9.68;1.88;;;20.30;68.80;;;;;;5002913;28;20081;-94
2021/05/12 12:16:01;;;;;;;9.13;1.70;;;20.40;71.70;;;;;;5005340;28;20513;-92
2021/05/12 12:18:37;;;;;;;8.82;1.65;;;20.30;70.20;;;;;;5008057;28;20061;-90
2021/05/12 12:21:03;;;;;;;11.52;2.05;;;20.40;70.30;;;;;;5017663;28;20046;-85
2021/05/12 12:23:31;;;;;;;10.63;1.60;;;20.40;68.90;;;;;;5014178;28;20049;-84
2021/05/12 12:26:19;;;;;;;8.15;1.60;;;20.40;66.40;;;;;;5012020;28;20049;-85
2021/05/12 12:28:48;;;;;;;7.07;1.83;;;20.30;62.00;;;;;;5014146;28;20482;-86
2021/05/12 12:31:26;;;;;;;9.85;1.75;;;20.10;63.50;;;;;;5002557;28;20054;-88
2021/05/12 12:34:24;;;;;;;9.65;1.70;;;19.90;65.80;;;;;;5013442;28;20112;-85
2021/05/12 12:36:57;;;;;;;12.93;2.05;;;19.80;62.60;;;;;;5014016;28;20108;-86
2021/05/12 12:39:56;;;;;;;7.32;1.60;;;19.60;64.90;;;;;;5014317;28;20108;-85
2021/05/12 12:42:30;;;;;;;10.18;1.88;;;19.60;61.90;;;;;;5006294;28;20092;-87
2021/05/12 12:44:57;;;;;;;7.85;1.40;;;19.50;64.30;;;;;;5002520;28;20050;-86
2021/05/12 12:47:24;;;;;;;9.65;1.63;;;19.50;62.30;;;;;;5019420;28;20452;-85
2021/05/12 12:50:01;;;;;;;10.70;1.67;;;19.50;61.20;;;;;;5026599;28;20081;-86
2021/05/12 12:52:30;;;;;;;9.27;1.60;;;19.50;62.40;;;;;;5024872;28;20417;-86
2021/05/12 12:55:12;;;;;;;9.98;1.58;;;19.40;64.30;;;;;;5019273;28;20125;-85
2021/05/12 12:57:49;;;;;;;7.20;1.48;;;19.50;60.50;;;;;;5028227;28;20592;-86
2021/05/12 13:00:27;;;;;;;7.78;1.60;;;19.40;60.00;;;;;;5027414;28;20045;-85
2021/05/12 13:03:08;;;;;;;8.52;1.30;;;19.30;59.30;;;;;;5036584;28;20072;-85
2021/05/12 13:05:54;;;;;;;4.18;1.00;;;19.30;58.40;;;;;;5023789;28;20061;-86
2021/05/12 13:08:39;;;;;;;8.55;1.40;;;19.30;58.20;;;;;;5021730;28;20125;-86
2021/05/12 13:11:04;;;;;;;9.07;1.42;;;19.30;59.30;;;;;;5030713;28;20054;-85
2021/05/12 13:13:47;;;;;;;8.13;1.52;;;19.30;60.20;;;;;;5033216;28;20146;-86
2021/05/12 13:16:33;;;;;;;7.20;1.52;;;19.30;57.80;;;;;;5024882;28;20249;-85
2021/05/12 13:19:03;;;;;;;9.32;1.67;;;19.30;58.60;;;;;;5028609;28;20060;-85
2021/05/12 13:21:35;;;;;;;8.00;1.48;;;19.30;57.90;;;;;;5017238;28;20045;-85
2021/05/12 13:24:10;;;;;;;7.10;1.40;;;19.40;58.40;;;;;;5032553;28;20065;-86
2021/05/12 13:26:40;;;;;;;6.78;1.40;;;19.30;57.10;;;;;;5021577;28;20301;-85
2021/05/12 13:29:08;;;;;;;8.02;1.60;;;19.30;58.10;;;;;;5029237;28;20045;-87
2021/05/12 13:31:34;;;;;;;8.75;1.38;;;19.30;56.90;;;;;;5029305;28;20050;-84
2021/05/12 13:34:00;;;;;;;9.60;1.80;;;19.20;57.00;;;;;;5024818;28;20053;-85
2021/05/12 13:36:26;;;;;;;6.78;1.42;;;19.20;57.20;;;;;;5023026;28;20049;-85
2021/05/12 13:38:52;;;;;;;9.50;1.45;;;19.20;59.10;;;;;;5026525;28;20405;-84
2021/05/12 13:41:17;;;;;;;6.53;1.65;;;19.30;59.50;;;;;;5016736;28;20076;-85
2021/05/12 13:43:43;;;;;;;13.48;1.80;;;19.30;59.70;;;;;;5021535;28;20056;-85
2021/05/12 13:46:09;;;;;;;10.13;1.85;;;19.30;59.50;;;;;;5031642;28;20504;-84